sensor_id;sensor_type;location;lat;lon;timestamp;temperature;humidity
11934;DHT22;6026;48.784;9.198;2023-11-21T00:01:57;7.80;99.90
11934;DHT22;6026;48.784;9.198;2023-11-21T00:04:23;7.80;99.90
11934;DHT22;6026;48.784;9.198;2023-11-21T00:06:49;7.80;99.90
11934;DHT22;6026;48.784;9.198;2023-11-21T00:09:15;7.80;99.90
11934;DHT22;6026;48.784;9.198;2023-11-21T00:11:41;7.90;99.90
11934;DHT22;6026;48.784;9.198;2023-11-21T00:14:07;7.90;99.90
11934;DHT22;6026;48.784;9.198;2023-11-21T00:16:33;7.90;99.90
11934;DHT22;6026;48.784;9.198;2023-11-21T00:18:59;7.80;99.90
11934;DHT22;6026;48.784;9.198;2023-11-21T00:21:25;7.80;99.90
11934;DHT22;6026;48.784;9.198;2023-11-21T00:23:50;7.80;99.90
11934;DHT22;6026;48.784;9.198;2023-11-21T00:26:16;7.80;99.90
11934;DHT22;6026;48.784;9.198;2023-11-21T00:28:42;7.80;99.90
11934;DHT22;6026;48.784;9.198;2023-11-21T00:31:07;7.80;99.90
11934;DHT22;6026;48.784;9.198;2023-11-21T00:33:33;7.80;99.90
11934;DHT22;6026;48.784;9.198;2023-11-21T00:35:59;7.80;99.90
11934;DHT22;6026;48.784;9.198;2023-11-21T00:38:24;7.80;99.90
11934;DHT22;6026;48.784;9.198;2023-11-21T00:40:50;7.90;99.90
11934;DHT22;6026;48.784;9.198;2023-11-21T00:43:15;7.90;99.90
11934;DHT22;6026;48.784;9.198;2023-11-21T00:45:41;7.90;99.90
11934;DHT22;6026;48.784;9.198;2023-11-21T00:48:06;7.90;99.90
11934;DHT22;6026;48.784;9.198;2023-11-21T00:50:33;7.90;99.90
11934;DHT22;6026;48.784;9.198;2023-11-21T00:52:59;8.00;99.90
11934;DHT22;6026;48.784;9.198;2023-11-21T00:55:25;8.00;99.90
11934;DHT22;6026;48.784;9.198;2023-11-21T00:57:51;8.00;99.90
11934;DHT22;6026;48.784;9.198;2023-11-21T01:00:17;8.00;99.90
11934;DHT22;6026;48.784;9.198;2023-11-21T01:02:46;8.00;99.90
11934;DHT22;6026;48.784;9.198;2023-11-21T01:05:12;8.00;99.90
11934;DHT22;6026;48.784;9.198;2023-11-21T01:07:38;8.00;99.90
11934;DHT22;6026;48.784;9.198;2023-11-21T01:10:04;8.00;99.90
11934;DHT22;6026;48.784;9.198;2023-11-21T01:12:36;8.00;99.90
11934;DHT22;6026;48.784;9.198;2023-11-21T01:15:03;8.00;99.90
11934;DHT22;6026;48.784;9.198;2023-11-21T01:17:29;8.00;99.90
11934;DHT22;6026;48.784;9.198;2023-11-21T01:19:55;8.00;99.90
11934;DHT22;6026;48.784;9.198;2023-11-21T01:22:21;8.10;99.90
11934;DHT22;6026;48.784;9.198;2023-11-21T01:24:52;8.00;99.90
11934;DHT22;6026;48.784;9.198;2023-11-21T01:27:17;8.00;99.90
11934;DHT22;6026;48.784;9.198;2023-11-21T01:29:44;8.00;99.90
11934;DHT22;6026;48.784;9.198;2023-11-21T01:32:10;8.00;99.90
11934;DHT22;6026;48.784;9.198;2023-11-21T01:34:36;8.00;99.90
11934;DHT22;6026;48.784;9.198;2023-11-21T01:37:02;8.00;99.90
11934;DHT22;6026;48.784;9.198;2023-11-21T01:39:30;8.00;99.90
11934;DHT22;6026;48.784;9.198;2023-11-21T01:41:55;8.00;99.90
11934;DHT22;6026;48.784;9.198;2023-11-21T01:44:26;8.00;99.90
11934;DHT22;6026;48.784;9.198;2023-11-21T01:46:52;8.00;99.90
11934;DHT22;6026;48.784;9.198;2023-11-21T01:49:17;8.00;99.90
11934;DHT22;6026;48.784;9.198;2023-11-21T01:51:48;8.00;99.90
11934;DHT22;6026;48.784;9.198;2023-11-21T01:54:15;8.00;99.90
11934;DHT22;6026;48.784;9.198;2023-11-21T01:56:43;8.00;99.90
11934;DHT22;6026;48.784;9.198;2023-11-21T01:59:10;8.00;99.90
11934;DHT22;6026;48.784;9.198;2023-11-21T02:01:37;8.00;99.90
11934;DHT22;6026;48.784;9.198;2023-11-21T02:04:03;8.00;99.90
11934;DHT22;6026;48.784;9.198;2023-11-21T02:06:28;8.00;99.90
11934;DHT22;6026;48.784;9.198;2023-11-21T02:08:56;8.10;99.90
11934;DHT22;6026;48.784;9.198;2023-11-21T02:11:22;8.00;99.90
11934;DHT22;6026;48.784;9.198;2023-11-21T02:13:47;8.00;99.90
11934;DHT22;6026;48.784;9.198;2023-11-21T02:16:15;8.00;99.90
11934;DHT22;6026;48.784;9.198;2023-11-21T02:18:40;8.00;99.90
11934;DHT22;6026;48.784;9.198;2023-11-21T02:21:07;8.00;99.90
11934;DHT22;6026;48.784;9.198;2023-11-21T02:23:33;8.00;99.90
11934;DHT22;6026;48.784;9.198;2023-11-21T02:25:58;8.00;99.90
11934;DHT22;6026;48.784;9.198;2023-11-21T02:28:24;7.90;99.90
11934;DHT22;6026;48.784;9.198;2023-11-21T02:30:54;7.90;99.90
11934;DHT22;6026;48.784;9.198;2023-11-21T02:33:22;8.00;99.90
11934;DHT22;6026;48.784;9.198;2023-11-21T02:35:47;8.00;99.90
11934;DHT22;6026;48.784;9.198;2023-11-21T02:38:13;8.00;99.90
11934;DHT22;6026;48.784;9.198;2023-11-21T02:40:39;8.00;99.90
11934;DHT22;6026;48.784;9.198;2023-11-21T02:43:05;8.00;99.90
11934;DHT22;6026;48.784;9.198;2023-11-21T02:45:31;8.00;99.90
11934;DHT22;6026;48.784;9.198;2023-11-21T02:47:57;8.00;99.90
11934;DHT22;6026;48.784;9.198;2023-11-21T02:50:23;8.00;99.90
11934;DHT22;6026;48.784;9.198;2023-11-21T02:52:49;8.00;99.90
11934;DHT22;6026;48.784;9.198;2023-11-21T02:55:14;8.00;99.90
11934;DHT22;6026;48.784;9.198;2023-11-21T02:57:40;8.00;99.90
11934;DHT22;6026;48.784;9.198;2023-11-21T03:00:06;8.00;99.90
11934;DHT22;6026;48.784;9.198;2023-11-21T03:02:38;7.90;99.90
11934;DHT22;6026;48.784;9.198;2023-11-21T03:05:05;7.90;99.90
11934;DHT22;6026;48.784;9.198;2023-11-21T03:07:30;7.90;99.90
11934;DHT22;6026;48.784;9.198;2023-11-21T03:09:56;7.80;99.90
11934;DHT22;6026;48.784;9.198;2023-11-21T03:12:21;7.80;99.90
11934;DHT22;6026;48.784;9.198;2023-11-21T03:14:47;7.80;99.90
11934;DHT22;6026;48.784;9.198;2023-11-21T03:17:13;7.80;99.90
11934;DHT22;6026;48.784;9.198;2023-11-21T03:19:41;7.90;99.90
11934;DHT22;6026;48.784;9.198;2023-11-21T03:22:07;7.90;99.90
11934;DHT22;6026;48.784;9.198;2023-11-21T03:24:34;7.80;99.90
11934;DHT22;6026;48.784;9.198;2023-11-21T03:27:00;7.80;99.90
11934;DHT22;6026;48.784;9.198;2023-11-21T03:29:25;7.80;99.90
11934;DHT22;6026;48.784;9.198;2023-11-21T03:31:51;7.90;99.90
11934;DHT22;6026;48.784;9.198;2023-11-21T03:34:27;7.80;99.90
11934;DHT22;6026;48.784;9.198;2023-11-21T03:36:52;7.90;99.90
11934;DHT22;6026;48.784;9.198;2023-11-21T03:39:19;7.90;99.90
11934;DHT22;6026;48.784;9.198;2023-11-21T03:41:45;7.90;99.90
11934;DHT22;6026;48.784;9.198;2023-11-21T03:44:10;7.90;99.90
11934;DHT22;6026;48.784;9.198;2023-11-21T03:46:36;7.80;99.90
11934;DHT22;6026;48.784;9.198;2023-11-21T03:49:02;7.90;99.90
11934;DHT22;6026;48.784;9.198;2023-11-21T03:51:27;7.80;99.90
11934;DHT22;6026;48.784;9.198;2023-11-21T03:53:53;7.90;99.90
11934;DHT22;6026;48.784;9.198;2023-11-21T03:56:19;7.90;99.90
11934;DHT22;6026;48.784;9.198;2023-11-21T03:58:47;7.80;99.90
11934;DHT22;6026;48.784;9.198;2023-11-21T04:01:22;7.80;99.90
11934;DHT22;6026;48.784;9.198;2023-11-21T04:03:49;7.90;99.90
11934;DHT22;6026;48.784;9.198;2023-11-21T04:06:15;7.90;99.90
11934;DHT22;6026;48.784;9.198;2023-11-21T04:08:45;7.80;99.90
11934;DHT22;6026;48.784;9.198;2023-11-21T04:11:11;7.90;99.90
11934;DHT22;6026;48.784;9.198;2023-11-21T04:13:40;7.90;99.90
11934;DHT22;6026;48.784;9.198;2023-11-21T04:16:07;7.90;99.90
11934;DHT22;6026;48.784;9.198;2023-11-21T04:18:33;8.00;99.90
11934;DHT22;6026;48.784;9.198;2023-11-21T04:20:59;7.90;99.90
11934;DHT22;6026;48.784;9.198;2023-11-21T04:23:25;7.90;99.90
11934;DHT22;6026;48.784;9.198;2023-11-21T04:25:50;7.90;99.90
11934;DHT22;6026;48.784;9.198;2023-11-21T04:28:16;7.90;99.90
11934;DHT22;6026;48.784;9.198;2023-11-21T04:30:41;7.90;99.90
11934;DHT22;6026;48.784;9.198;2023-11-21T04:33:07;7.90;99.90
11934;DHT22;6026;48.784;9.198;2023-11-21T04:35:33;7.90;99.90
11934;DHT22;6026;48.784;9.198;2023-11-21T04:37:58;7.80;99.90
11934;DHT22;6026;48.784;9.198;2023-11-21T04:40:24;7.80;99.90
11934;DHT22;6026;48.784;9.198;2023-11-21T04:42:49;7.70;99.90
11934;DHT22;6026;48.784;9.198;2023-11-21T04:45:15;7.70;99.90
11934;DHT22;6026;48.784;9.198;2023-11-21T04:47:41;7.60;99.90
11934;DHT22;6026;48.784;9.198;2023-11-21T04:50:07;7.60;99.90
11934;DHT22;6026;48.784;9.198;2023-11-21T04:52:32;7.60;99.90
11934;DHT22;6026;48.784;9.198;2023-11-21T04:54:58;7.50;99.90
11934;DHT22;6026;48.784;9.198;2023-11-21T04:57:26;7.50;99.90
11934;DHT22;6026;48.784;9.198;2023-11-21T04:59:54;7.50;99.90
11934;DHT22;6026;48.784;9.198;2023-11-21T05:02:19;7.40;99.90
11934;DHT22;6026;48.784;9.198;2023-11-21T05:04:46;7.40;99.90
11934;DHT22;6026;48.784;9.198;2023-11-21T05:07:12;7.40;99.90
11934;DHT22;6026;48.784;9.198;2023-11-21T05:09:44;7.40;99.90
11934;DHT22;6026;48.784;9.198;2023-11-21T05:12:12;7.40;99.90
11934;DHT22;6026;48.784;9.198;2023-11-21T05:14:37;7.30;99.90
11934;DHT22;6026;48.784;9.198;2023-11-21T05:17:03;7.30;99.90
11934;DHT22;6026;48.784;9.198;2023-11-21T05:19:29;7.40;99.90
11934;DHT22;6026;48.784;9.198;2023-11-21T05:21:55;7.40;99.90
11934;DHT22;6026;48.784;9.198;2023-11-21T05:24:21;7.40;99.90
11934;DHT22;6026;48.784;9.198;2023-11-21T05:26:46;7.40;99.90
11934;DHT22;6026;48.784;9.198;2023-11-21T05:29:12;7.50;99.90
11934;DHT22;6026;48.784;9.198;2023-11-21T05:31:37;7.50;99.90
11934;DHT22;6026;48.784;9.198;2023-11-21T05:34:03;7.50;99.90
11934;DHT22;6026;48.784;9.198;2023-11-21T05:36:30;7.50;99.90
11934;DHT22;6026;48.784;9.198;2023-11-21T05:38:56;7.50;99.90
11934;DHT22;6026;48.784;9.198;2023-11-21T05:41:22;7.50;99.90
11934;DHT22;6026;48.784;9.198;2023-11-21T05:43:48;7.60;99.90
11934;DHT22;6026;48.784;9.198;2023-11-21T05:46:14;7.60;99.90
11934;DHT22;6026;48.784;9.198;2023-11-21T05:48:39;7.60;99.90
11934;DHT22;6026;48.784;9.198;2023-11-21T05:51:06;7.60;99.90
11934;DHT22;6026;48.784;9.198;2023-11-21T05:53:32;7.60;99.90
11934;DHT22;6026;48.784;9.198;2023-11-21T05:55:57;7.60;99.90
11934;DHT22;6026;48.784;9.198;2023-11-21T05:58:23;7.60;99.90
11934;DHT22;6026;48.784;9.198;2023-11-21T06:00:49;7.60;99.90
11934;DHT22;6026;48.784;9.198;2023-11-21T06:03:14;7.60;99.90
11934;DHT22;6026;48.784;9.198;2023-11-21T06:05:40;7.60;99.90
11934;DHT22;6026;48.784;9.198;2023-11-21T06:08:06;7.70;99.90
11934;DHT22;6026;48.784;9.198;2023-11-21T06:10:32;7.60;99.90
11934;DHT22;6026;48.784;9.198;2023-11-21T06:12:58;7.60;99.90
11934;DHT22;6026;48.784;9.198;2023-11-21T06:15:24;7.60;99.90
11934;DHT22;6026;48.784;9.198;2023-11-21T06:17:51;7.60;99.90
11934;DHT22;6026;48.784;9.198;2023-11-21T06:20:20;7.60;99.90
11934;DHT22;6026;48.784;9.198;2023-11-21T06:22:48;7.50;99.90
11934;DHT22;6026;48.784;9.198;2023-11-21T06:25:14;7.60;99.90
11934;DHT22;6026;48.784;9.198;2023-11-21T06:27:45;7.60;99.90
11934;DHT22;6026;48.784;9.198;2023-11-21T06:30:12;7.60;99.90
11934;DHT22;6026;48.784;9.198;2023-11-21T06:32:39;7.60;99.90
11934;DHT22;6026;48.784;9.198;2023-11-21T06:35:06;7.60;99.90
11934;DHT22;6026;48.784;9.198;2023-11-21T06:37:32;7.60;99.90
11934;DHT22;6026;48.784;9.198;2023-11-21T06:39:58;7.60;99.90
11934;DHT22;6026;48.784;9.198;2023-11-21T06:42:25;7.60;99.90
11934;DHT22;6026;48.784;9.198;2023-11-21T06:44:51;7.60;99.90
11934;DHT22;6026;48.784;9.198;2023-11-21T06:47:17;7.60;99.90
11934;DHT22;6026;48.784;9.198;2023-11-21T06:49:45;7.60;99.90
11934;DHT22;6026;48.784;9.198;2023-11-21T06:52:13;7.60;99.90
11934;DHT22;6026;48.784;9.198;2023-11-21T06:54:39;7.60;99.90
11934;DHT22;6026;48.784;9.198;2023-11-21T06:57:04;7.70;99.90
11934;DHT22;6026;48.784;9.198;2023-11-21T06:59:30;7.70;99.90
11934;DHT22;6026;48.784;9.198;2023-11-21T07:01:55;7.60;99.90
11934;DHT22;6026;48.784;9.198;2023-11-21T07:04:21;7.70;99.90
11934;DHT22;6026;48.784;9.198;2023-11-21T07:06:47;7.70;99.90
11934;DHT22;6026;48.784;9.198;2023-11-21T07:09:12;7.70;99.90
11934;DHT22;6026;48.784;9.198;2023-11-21T07:11:38;7.70;99.90
11934;DHT22;6026;48.784;9.198;2023-11-21T07:14:04;7.80;99.90
11934;DHT22;6026;48.784;9.198;2023-11-21T07:16:36;7.90;99.90
11934;DHT22;6026;48.784;9.198;2023-11-21T07:19:06;7.80;99.90
11934;DHT22;6026;48.784;9.198;2023-11-21T07:21:36;7.90;99.90
11934;DHT22;6026;48.784;9.198;2023-11-21T07:24:02;7.90;99.90
11934;DHT22;6026;48.784;9.198;2023-11-21T07:26:28;7.90;99.90
11934;DHT22;6026;48.784;9.198;2023-11-21T07:28:54;7.90;99.90
11934;DHT22;6026;48.784;9.198;2023-11-21T07:31:19;8.00;99.90
11934;DHT22;6026;48.784;9.198;2023-11-21T07:33:48;8.00;99.90
11934;DHT22;6026;48.784;9.198;2023-11-21T07:36:15;8.00;99.90
11934;DHT22;6026;48.784;9.198;2023-11-21T07:38:41;8.10;99.90
11934;DHT22;6026;48.784;9.198;2023-11-21T07:41:08;8.10;99.90
11934;DHT22;6026;48.784;9.198;2023-11-21T07:43:37;8.10;99.90
11934;DHT22;6026;48.784;9.198;2023-11-21T07:46:03;8.10;99.90
11934;DHT22;6026;48.784;9.198;2023-11-21T07:48:30;8.20;99.90
11934;DHT22;6026;48.784;9.198;2023-11-21T07:50:56;8.20;99.90
11934;DHT22;6026;48.784;9.198;2023-11-21T07:53:22;8.20;99.90
11934;DHT22;6026;48.784;9.198;2023-11-21T07:55:47;8.20;99.90
11934;DHT22;6026;48.784;9.198;2023-11-21T07:58:13;8.30;99.90
11934;DHT22;6026;48.784;9.198;2023-11-21T08:00:39;8.20;99.90
11934;DHT22;6026;48.784;9.198;2023-11-21T08:03:05;8.30;99.90
11934;DHT22;6026;48.784;9.198;2023-11-21T08:05:31;8.30;99.90
11934;DHT22;6026;48.784;9.198;2023-11-21T08:07:57;8.30;99.90
11934;DHT22;6026;48.784;9.198;2023-11-21T08:10:22;8.40;99.90
11934;DHT22;6026;48.784;9.198;2023-11-21T08:12:48;8.50;99.90
11934;DHT22;6026;48.784;9.198;2023-11-21T08:15:16;8.50;99.90
11934;DHT22;6026;48.784;9.198;2023-11-21T08:17:42;8.50;99.90
11934;DHT22;6026;48.784;9.198;2023-11-21T08:20:08;8.50;99.90
11934;DHT22;6026;48.784;9.198;2023-11-21T08:22:36;8.60;99.90
11934;DHT22;6026;48.784;9.198;2023-11-21T08:25:02;8.70;99.90
11934;DHT22;6026;48.784;9.198;2023-11-21T08:27:29;8.70;99.90
11934;DHT22;6026;48.784;9.198;2023-11-21T08:29:55;8.60;99.90
11934;DHT22;6026;48.784;9.198;2023-11-21T08:32:22;8.60;99.90
11934;DHT22;6026;48.784;9.198;2023-11-21T08:34:47;8.60;99.90
11934;DHT22;6026;48.784;9.198;2023-11-21T08:37:16;8.70;99.90
11934;DHT22;6026;48.784;9.198;2023-11-21T08:39:43;8.70;99.90
11934;DHT22;6026;48.784;9.198;2023-11-21T08:42:08;8.70;99.90
11934;DHT22;6026;48.784;9.198;2023-11-21T08:44:34;8.70;99.90
11934;DHT22;6026;48.784;9.198;2023-11-21T08:47:00;8.70;99.90
11934;DHT22;6026;48.784;9.198;2023-11-21T08:49:26;8.70;99.90
11934;DHT22;6026;48.784;9.198;2023-11-21T08:51:53;8.80;99.90
11934;DHT22;6026;48.784;9.198;2023-11-21T08:54:21;8.70;99.90
11934;DHT22;6026;48.784;9.198;2023-11-21T08:56:46;8.80;99.90
11934;DHT22;6026;48.784;9.198;2023-11-21T08:59:13;8.90;99.90
11934;DHT22;6026;48.784;9.198;2023-11-21T09:01:39;8.90;99.90
11934;DHT22;6026;48.784;9.198;2023-11-21T09:04:05;8.90;99.90
11934;DHT22;6026;48.784;9.198;2023-11-21T09:06:31;9.00;99.90
11934;DHT22;6026;48.784;9.198;2023-11-21T09:08:56;9.00;99.90
11934;DHT22;6026;48.784;9.198;2023-11-21T09:11:22;9.10;99.90
11934;DHT22;6026;48.784;9.198;2023-11-21T09:13:50;9.30;99.90
11934;DHT22;6026;48.784;9.198;2023-11-21T09:16:16;9.30;99.90
11934;DHT22;6026;48.784;9.198;2023-11-21T09:18:42;9.50;99.90
11934;DHT22;6026;48.784;9.198;2023-11-21T09:21:08;9.60;99.90
11934;DHT22;6026;48.784;9.198;2023-11-21T09:23:35;9.60;99.90
11934;DHT22;6026;48.784;9.198;2023-11-21T09:26:01;9.70;99.90
11934;DHT22;6026;48.784;9.198;2023-11-21T09:28:27;9.70;99.90
11934;DHT22;6026;48.784;9.198;2023-11-21T09:30:53;9.80;99.90
11934;DHT22;6026;48.784;9.198;2023-11-21T09:33:19;9.80;99.90
11934;DHT22;6026;48.784;9.198;2023-11-21T09:35:46;9.90;99.90
11934;DHT22;6026;48.784;9.198;2023-11-21T09:38:11;10.00;99.90
11934;DHT22;6026;48.784;9.198;2023-11-21T09:40:37;10.10;99.90
11934;DHT22;6026;48.784;9.198;2023-11-21T09:43:07;10.20;99.90
11934;DHT22;6026;48.784;9.198;2023-11-21T09:45:38;10.30;99.90
11934;DHT22;6026;48.784;9.198;2023-11-21T09:48:04;10.40;99.90
11934;DHT22;6026;48.784;9.198;2023-11-21T09:50:32;10.30;99.90
11934;DHT22;6026;48.784;9.198;2023-11-21T09:53:17;10.40;99.90
11934;DHT22;6026;48.784;9.198;2023-11-21T09:55:47;10.30;99.90
11934;DHT22;6026;48.784;9.198;2023-11-21T09:58:14;10.30;99.90
11934;DHT22;6026;48.784;9.198;2023-11-21T10:00:41;10.30;99.90
11934;DHT22;6026;48.784;9.198;2023-11-21T10:03:07;10.20;99.90
11934;DHT22;6026;48.784;9.198;2023-11-21T10:05:34;10.20;99.90
11934;DHT22;6026;48.784;9.198;2023-11-21T10:08:00;10.30;99.90
11934;DHT22;6026;48.784;9.198;2023-11-21T10:10:27;10.20;99.90
11934;DHT22;6026;48.784;9.198;2023-11-21T10:12:57;10.20;99.90
11934;DHT22;6026;48.784;9.198;2023-11-21T10:15:28;10.20;99.90
11934;DHT22;6026;48.784;9.198;2023-11-21T10:17:55;10.20;99.90
11934;DHT22;6026;48.784;9.198;2023-11-21T10:20:22;10.10;99.90
11934;DHT22;6026;48.784;9.198;2023-11-21T10:22:50;10.00;99.90
11934;DHT22;6026;48.784;9.198;2023-11-21T10:25:15;9.90;99.90
11934;DHT22;6026;48.784;9.198;2023-11-21T10:27:42;9.90;99.90
11934;DHT22;6026;48.784;9.198;2023-11-21T10:30:09;9.80;99.90
11934;DHT22;6026;48.784;9.198;2023-11-21T10:32:41;9.80;99.90
11934;DHT22;6026;48.784;9.198;2023-11-21T10:35:08;9.70;99.90
11934;DHT22;6026;48.784;9.198;2023-11-21T10:37:41;9.60;99.90
11934;DHT22;6026;48.784;9.198;2023-11-21T10:40:08;9.60;99.90
11934;DHT22;6026;48.784;9.198;2023-11-21T10:42:40;9.50;99.90
11934;DHT22;6026;48.784;9.198;2023-11-21T10:45:06;9.60;99.90
11934;DHT22;6026;48.784;9.198;2023-11-21T10:47:41;9.60;99.90
11934;DHT22;6026;48.784;9.198;2023-11-21T10:50:07;9.60;99.90
11934;DHT22;6026;48.784;9.198;2023-11-21T10:52:39;9.60;99.90
11934;DHT22;6026;48.784;9.198;2023-11-21T10:55:18;9.60;99.90
11934;DHT22;6026;48.784;9.198;2023-11-21T10:57:52;9.60;99.90
11934;DHT22;6026;48.784;9.198;2023-11-21T11:00:19;9.60;99.90
11934;DHT22;6026;48.784;9.198;2023-11-21T11:02:53;9.70;99.90
11934;DHT22;6026;48.784;9.198;2023-11-21T11:05:25;9.70;99.90
11934;DHT22;6026;48.784;9.198;2023-11-21T11:08:12;9.90;99.90
11934;DHT22;6026;48.784;9.198;2023-11-21T11:10:37;10.00;99.90
11934;DHT22;6026;48.784;9.198;2023-11-21T11:13:04;10.00;99.90
11934;DHT22;6026;48.784;9.198;2023-11-21T11:15:32;10.10;99.90
11934;DHT22;6026;48.784;9.198;2023-11-21T11:17:59;10.10;99.90
11934;DHT22;6026;48.784;9.198;2023-11-21T11:20:29;10.20;99.90
11934;DHT22;6026;48.784;9.198;2023-11-21T11:28:57;10.40;99.90
11934;DHT22;6026;48.784;9.198;2023-11-21T11:34:32;10.50;99.90
11934;DHT22;6026;48.784;9.198;2023-11-21T11:37:04;10.40;99.90
11934;DHT22;6026;48.784;9.198;2023-11-21T11:39:38;10.50;99.90
11934;DHT22;6026;48.784;9.198;2023-11-21T11:42:07;10.50;99.90
11934;DHT22;6026;48.784;9.198;2023-11-21T11:50:08;10.40;99.90
11934;DHT22;6026;48.784;9.198;2023-11-21T11:52:46;10.40;99.90
11934;DHT22;6026;48.784;9.198;2023-11-21T11:55:14;10.40;99.90
11934;DHT22;6026;48.784;9.198;2023-11-21T11:57:43;10.30;99.90
11934;DHT22;6026;48.784;9.198;2023-11-21T12:00:13;10.30;99.90
11934;DHT22;6026;48.784;9.198;2023-11-21T12:02:54;10.40;99.90
11934;DHT22;6026;48.784;9.198;2023-11-21T12:05:21;10.50;99.90
11934;DHT22;6026;48.784;9.198;2023-11-21T12:10:22;10.50;99.90
11934;DHT22;6026;48.784;9.198;2023-11-21T12:12:51;10.50;99.90
11934;DHT22;6026;48.784;9.198;2023-11-21T12:15:20;10.50;99.90
11934;DHT22;6026;48.784;9.198;2023-11-21T12:17:47;10.50;99.90
11934;DHT22;6026;48.784;9.198;2023-11-21T12:20:15;10.50;99.90
11934;DHT22;6026;48.784;9.198;2023-11-21T12:23:02;10.40;99.90
11934;DHT22;6026;48.784;9.198;2023-11-21T12:25:30;10.30;99.90
11934;DHT22;6026;48.784;9.198;2023-11-21T12:28:00;10.30;99.90
11934;DHT22;6026;48.784;9.198;2023-11-21T12:30:27;10.20;99.90
11934;DHT22;6026;48.784;9.198;2023-11-21T12:32:56;10.30;99.90
11934;DHT22;6026;48.784;9.198;2023-11-21T12:35:25;10.30;99.90
11934;DHT22;6026;48.784;9.198;2023-11-21T12:37:52;10.30;99.90
11934;DHT22;6026;48.784;9.198;2023-11-21T12:40:18;10.30;99.90
11934;DHT22;6026;48.784;9.198;2023-11-21T12:42:45;10.20;99.90
11934;DHT22;6026;48.784;9.198;2023-11-21T12:45:18;10.30;99.90
11934;DHT22;6026;48.784;9.198;2023-11-21T12:50:11;10.40;99.90
11934;DHT22;6026;48.784;9.198;2023-11-21T12:52:41;10.40;99.90
11934;DHT22;6026;48.784;9.198;2023-11-21T12:55:09;10.50;99.90
11934;DHT22;6026;48.784;9.198;2023-11-21T12:57:35;10.50;99.90
11934;DHT22;6026;48.784;9.198;2023-11-21T13:00:04;10.60;99.90
11934;DHT22;6026;48.784;9.198;2023-11-21T13:02:37;10.60;99.90
11934;DHT22;6026;48.784;9.198;2023-11-21T13:05:04;10.60;99.90
11934;DHT22;6026;48.784;9.198;2023-11-21T13:07:43;10.50;99.90
11934;DHT22;6026;48.784;9.198;2023-11-21T13:10:13;10.50;99.90
11934;DHT22;6026;48.784;9.198;2023-11-21T13:12:45;10.50;99.90
11934;DHT22;6026;48.784;9.198;2023-11-21T13:15:14;10.50;99.90
11934;DHT22;6026;48.784;9.198;2023-11-21T13:17:43;10.50;99.90
11934;DHT22;6026;48.784;9.198;2023-11-21T13:20:13;10.50;99.90
11934;DHT22;6026;48.784;9.198;2023-11-21T13:22:47;10.50;99.90
11934;DHT22;6026;48.784;9.198;2023-11-21T13:25:16;10.40;99.90
11934;DHT22;6026;48.784;9.198;2023-11-21T13:27:44;10.20;99.90
11934;DHT22;6026;48.784;9.198;2023-11-21T13:30:12;10.00;99.90
11934;DHT22;6026;48.784;9.198;2023-11-21T13:32:43;9.80;99.90
11934;DHT22;6026;48.784;9.198;2023-11-21T13:35:10;9.70;99.90
11934;DHT22;6026;48.784;9.198;2023-11-21T13:37:47;9.60;99.90
11934;DHT22;6026;48.784;9.198;2023-11-21T13:40:15;9.50;99.90
11934;DHT22;6026;48.784;9.198;2023-11-21T13:42:44;9.40;99.90
11934;DHT22;6026;48.784;9.198;2023-11-21T13:45:11;9.30;99.90
11934;DHT22;6026;48.784;9.198;2023-11-21T13:47:38;9.30;99.90
11934;DHT22;6026;48.784;9.198;2023-11-21T13:50:04;9.20;99.90
11934;DHT22;6026;48.784;9.198;2023-11-21T13:52:33;9.20;99.90
11934;DHT22;6026;48.784;9.198;2023-11-21T13:55:01;9.20;99.90
11934;DHT22;6026;48.784;9.198;2023-11-21T13:57:31;9.30;99.90
11934;DHT22;6026;48.784;9.198;2023-11-21T13:59:58;9.20;99.90
11934;DHT22;6026;48.784;9.198;2023-11-21T14:02:24;9.20;99.90
11934;DHT22;6026;48.784;9.198;2023-11-21T14:04:57;9.20;99.90
11934;DHT22;6026;48.784;9.198;2023-11-21T14:07:26;9.20;99.90
11934;DHT22;6026;48.784;9.198;2023-11-21T14:10:01;9.20;99.90
11934;DHT22;6026;48.784;9.198;2023-11-21T14:12:28;9.20;99.90
11934;DHT22;6026;48.784;9.198;2023-11-21T14:14:54;9.20;99.90
11934;DHT22;6026;48.784;9.198;2023-11-21T14:17:20;9.20;99.90
11934;DHT22;6026;48.784;9.198;2023-11-21T14:19:49;9.20;99.90
11934;DHT22;6026;48.784;9.198;2023-11-21T14:22:14;9.10;99.90
11934;DHT22;6026;48.784;9.198;2023-11-21T14:24:40;9.10;99.90
11934;DHT22;6026;48.784;9.198;2023-11-21T14:27:12;9.10;99.90
11934;DHT22;6026;48.784;9.198;2023-11-21T14:29:38;9.10;99.90
11934;DHT22;6026;48.784;9.198;2023-11-21T14:32:07;9.10;99.90
11934;DHT22;6026;48.784;9.198;2023-11-21T14:34:33;9.10;99.90
11934;DHT22;6026;48.784;9.198;2023-11-21T14:36:59;9.10;99.90
11934;DHT22;6026;48.784;9.198;2023-11-21T14:39:24;9.10;99.90
11934;DHT22;6026;48.784;9.198;2023-11-21T14:41:54;9.00;99.90
11934;DHT22;6026;48.784;9.198;2023-11-21T14:44:21;9.00;99.90
11934;DHT22;6026;48.784;9.198;2023-11-21T14:46:51;9.00;99.90
11934;DHT22;6026;48.784;9.198;2023-11-21T14:49:18;9.00;99.90
11934;DHT22;6026;48.784;9.198;2023-11-21T14:51:46;9.00;99.90
11934;DHT22;6026;48.784;9.198;2023-11-21T14:54:21;9.00;99.90
11934;DHT22;6026;48.784;9.198;2023-11-21T14:57:04;9.00;99.90
11934;DHT22;6026;48.784;9.198;2023-11-21T14:59:30;9.00;99.90
11934;DHT22;6026;48.784;9.198;2023-11-21T15:01:57;9.00;99.90
11934;DHT22;6026;48.784;9.198;2023-11-21T15:04:25;8.90;99.90
11934;DHT22;6026;48.784;9.198;2023-11-21T15:07:02;8.90;99.90
11934;DHT22;6026;48.784;9.198;2023-11-21T15:09:29;8.90;99.90
11934;DHT22;6026;48.784;9.198;2023-11-21T15:12:14;8.90;99.90
11934;DHT22;6026;48.784;9.198;2023-11-21T15:14:51;8.90;99.90
11934;DHT22;6026;48.784;9.198;2023-11-21T15:17:21;8.90;99.90
11934;DHT22;6026;48.784;9.198;2023-11-21T15:19:55;8.90;99.90
11934;DHT22;6026;48.784;9.198;2023-11-21T15:22:21;8.90;99.90
11934;DHT22;6026;48.784;9.198;2023-11-21T15:24:47;8.90;99.90
11934;DHT22;6026;48.784;9.198;2023-11-21T15:27:15;8.90;99.90
11934;DHT22;6026;48.784;9.198;2023-11-21T15:29:42;8.90;99.90
11934;DHT22;6026;48.784;9.198;2023-11-21T15:32:08;8.90;99.90
11934;DHT22;6026;48.784;9.198;2023-11-21T15:34:35;8.80;99.90
11934;DHT22;6026;48.784;9.198;2023-11-21T15:37:01;8.90;99.90
11934;DHT22;6026;48.784;9.198;2023-11-21T15:39:28;8.90;99.90
11934;DHT22;6026;48.784;9.198;2023-11-21T15:41:56;8.80;99.90
11934;DHT22;6026;48.784;9.198;2023-11-21T15:44:25;8.80;99.90
11934;DHT22;6026;48.784;9.198;2023-11-21T15:46:52;8.70;99.90
11934;DHT22;6026;48.784;9.198;2023-11-21T15:49:18;8.70;99.90
11934;DHT22;6026;48.784;9.198;2023-11-21T15:51:47;8.70;99.90
11934;DHT22;6026;48.784;9.198;2023-11-21T15:54:18;8.60;99.90
11934;DHT22;6026;48.784;9.198;2023-11-21T15:56:46;8.60;99.90
11934;DHT22;6026;48.784;9.198;2023-11-21T15:59:12;8.60;99.90
11934;DHT22;6026;48.784;9.198;2023-11-21T16:01:38;8.50;99.90
11934;DHT22;6026;48.784;9.198;2023-11-21T16:04:12;8.50;99.90
11934;DHT22;6026;48.784;9.198;2023-11-21T16:06:41;8.50;99.90
11934;DHT22;6026;48.784;9.198;2023-11-21T16:09:06;8.40;99.90
11934;DHT22;6026;48.784;9.198;2023-11-21T16:11:38;8.50;99.90
11934;DHT22;6026;48.784;9.198;2023-11-21T16:14:04;8.40;99.90
11934;DHT22;6026;48.784;9.198;2023-11-21T16:16:29;8.40;99.90
11934;DHT22;6026;48.784;9.198;2023-11-21T16:18:55;8.40;99.90
11934;DHT22;6026;48.784;9.198;2023-11-21T16:21:20;8.50;99.90